Flight Track Log - Related Links

Times and Time Zones

All times are in EDT time to prevent confusion due to time zone crossing. See the KAP927 flight status page for this flight to view local times or setup timezone preferences in your user account.

Time Position Orientation Groundspeed Altitude Reporting Facility
EDT Latitude Longitude Course Direction KTS MPH feet Rate Location/Type
Fri 03:20:09 PM 42.7736 -73.8064 352° North 111 128 1,300  Level Boston Center
Fri 03:21:10 PM 42.8006 -73.8267 331° Northwest 102 117 2,000 661 Climbing Boston Center
Fri 03:22:16 PM 42.8272 -73.8528 324° Northwest 109 125 2,700 756 Climbing Boston Center
Fri 03:23:17 PM 42.8561 -73.8733 332° Northwest 110 127 3,600 672 Climbing Boston Center
Fri 03:24:30 PM 42.8872 -73.8967 331° Northwest 119 137 4,200 545 Climbing Boston Center
Fri 03:25:18 PM 42.9119 -73.9169 329° Northwest 124 143 4,700 550 Climbing Boston Center
Fri 03:26:19 PM 42.9406 -73.9461 323° Northwest 122 140 5,200 541 Climbing Boston Center
Fri 03:27:20 PM 42.9675 -73.9667 331° Northwest 119 137 5,800 574 Climbing Boston Center
Fri 03:28:14 PM 42.9922 -73.9872 329° Northwest 127 146 6,300 574 Climbing Boston Center
Fri 03:29:15 PM 43.0253 -74.0106 333° Northwest 127 146 6,900 500 Climbing Boston Center
Fri 03:30:14 PM 43.0542 -74.0342 329° Northwest 132 152 7,300 500 Climbing Boston Center
Fri 03:31:15 PM 43.0869 -74.0661 325° Northwest 132 152 7,900 500 Climbing Boston Center
Fri 03:32:14 PM 43.1178 -74.0897 331° Northwest 126 145 8,300 450 Climbing Boston Center
Fri 03:33:15 PM 43.1528 -74.1222 326° Northwest 126 145 8,800 446 Climbing Boston Center
Fri 03:34:15 PM 43.1817 -74.1456 330° Northwest 126 145 9,200 450 Climbing Boston Center
Fri 03:35:15 PM 43.2208 -74.1781 329° Northwest 132 152 9,700 400 Climbing Boston Center
Fri 03:36:15 PM 43.2536 -74.2047 329° Northwest 144 166 10,000 151 Climbing Boston Center
Fri 03:37:14 PM 43.2947 -74.2431 326° Northwest 154 177 10,000  Level Boston Center
Fri 03:38:15 PM 43.3319 -74.2725 330° Northwest 172 198 10,000  Level Boston Center
Fri 03:39:14 PM 43.3772 -74.3111 328° Northwest 172 198 10,000  Level Boston Center
Fri 03:40:15 PM 43.4142 -74.3436 327° Northwest 172 198 10,000  Level Boston Center
Fri 03:41:14 PM 43.4531 -74.3792 326° Northwest 166 191 10,000  Level Boston Center
Fri 03:42:15 PM 43.4922 -74.4119 329° Northwest 166 191 10,000  Level Boston Center
Fri 03:43:26 PM 43.5311 -74.4447 329° Northwest 166 191 10,000  Level Boston Center
Fri 03:44:26 PM 43.5783 -74.4864 327° Northwest 166 191 10,000  Level Boston Center
Fri 03:45:26 PM 43.6153 -74.5192 327° Northwest 166 191 10,000  Level Boston Center
Fri 03:46:27 PM 43.6542 -74.5522 328° Northwest 166 191 10,000  Level Boston Center
Fri 03:47:27 PM 43.6933 -74.5850 329° Northwest 166 191 10,000  Level Boston Center
Fri 03:48:27 PM 43.7300 -74.6181 327° Northwest 166 191 10,000  Level Boston Center
Fri 03:49:27 PM 43.7669 -74.6508 327° Northwest 166 191 10,000  Level Boston Center
Fri 03:50:27 PM 43.8061 -74.6842 328° Northwest 166 191 10,000  Level Boston Center
Fri 03:51:27 PM 43.8450 -74.7172 328° Northwest 166 191 10,000  Level Boston Center
Fri 03:52:39 PM 43.8839 -74.7503 329° Northwest 166 191 10,000  Level Boston Center
Fri 03:53:39 PM 43.9289 -74.7925 326° Northwest 166 191 10,000 -303 Level Boston Center
Fri 03:54:38 PM 43.9697 -74.8286 328° Northwest 166 191 9,400 -550 Descending Boston Center
Fri 03:55:39 PM 44.0169 -74.8653 331° Northwest 172 198 8,900 -545 Descending Boston Center
Fri 03:56:39 PM 44.0578 -74.9072 324° Northwest 177 204 8,300 -650 Descending Boston Center
Fri 03:57:39 PM 44.1050 -74.9439 331° Northwest 182 209 7,600 -750 Descending Boston Center
Fri 03:58:39 PM 44.1436 -74.9803 326° Northwest 176 203 6,800 -750 Descending Boston Center
Fri 03:59:39 PM 44.1867 -75.0169 329° Northwest 176 203 6,100 -550 Descending Boston Center
Fri 04:00:39 PM 44.2275 -75.0506 329° Northwest 176 203 5,700 -450 Descending Boston Center
Fri 04:01:39 PM 44.2664 -75.0869 326° Northwest 169 194 5,200 -303 Descending Boston Center
Fri 04:02:38 PM 44.3031 -75.1206 327° Northwest 163 188 5,100 -50 Descending Boston Center
Fri 04:03:39 PM 44.3356 -75.1539 324° Northwest 158 182 5,100  Level Boston Center
Fri 04:04:39 PM 44.3703 -75.1817 330° Northwest 152 175 5,100  Level Boston Center
Fri 04:05:39 PM 44.4031 -75.2122 326° Northwest 145 167 5,100  Level Boston Center
Fri 04:06:39 PM 44.4358 -75.2372 331° Northwest 145 167 5,100 -50 Level Boston Center
Fri 04:07:39 PM 44.4703 -75.2678 328° Northwest 145 167 5,000 -600 Descending Boston Center
Fri 04:08:39 PM 44.5092 -75.3047 326° Northwest 150 173 3,900 -1,100 Descending Boston Center

Login

Don't have an account? Register now (free) for customized features, flight alerts, and more!